Time,TemperatureF,DewpointF,PressureIn,WindDirection,WindDirectionDegrees,WindSpeedMPH,WindSpeedGustMPH,Humidity,HourlyPrecipIn,Conditions,Clouds,dailyrainin,SoftwareType,DateUTC
2013-07-22 00:00:00,75.1,75.1,30.03,WSW,248,2.7,2.7,100,0.00,,FEW006,0.00,VWS V14.01,2013-07-22 04:00:00,
2013-07-22 00:01:00,75.1,75.1,30.03,WSW,248,2.0,2.0,100,0.00,,FEW006,0.00,VWS V14.01,2013-07-22 04:01:00,
2013-07-22 00:02:00,75.1,75.1,30.03,WSW,248,2.9,2.9,100,0.00,,FEW006,0.00,VWS V14.01,2013-07-22 04:02:00,
2013-07-22 00:07:00,74.9,74.9,30.03,WSW,248,1.3,1.3,100,0.00,,FEW006,0.00,VWS V14.01,2013-07-22 04:07:00,
2013-07-22 00:12:00,74.9,74.9,30.00,WSW,248,2.9,2.9,100,0.00,,FEW006,0.00,VWS V14.01,2013-07-22 04:12:00,
2013-07-22 00:17:00,74.9,74.9,30.00,West,270,3.6,3.6,100,0.00,,FEW006,0.00,VWS V14.01,2013-07-22 04:17:00,
2013-07-22 00:22:00,74.7,74.7,30.00,West,270,4.3,4.3,100,0.00,,FEW006,0.00,VWS V14.01,2013-07-22 04:22:00,
2013-07-22 00:27:00,74.7,74.7,30.00,WNW,292,3.8,3.8,100,0.00,,FEW006,0.00,VWS V14.01,2013-07-22 04:27:00,
2013-07-22 00:32:00,74.7,74.7,30.00,WSW,248,1.3,1.3,100,0.00,,FEW006,0.00,VWS V14.01,2013-07-22 04:32:00,
2013-07-22 00:37:00,74.7,74.7,30.00,SSW,202,2.5,2.5,100,0.00,,SCT012,0.00,VWS V14.01,2013-07-22 04:37:00,
2013-07-22 00:42:00,74.7,74.7,29.97,WSW,248,4.0,4.0,100,0.00,,SCT012,0.00,VWS V14.01,2013-07-22 04:42:00,
2013-07-22 00:47:00,74.7,74.7,29.97,WSW,248,3.8,3.8,100,0.00,,SCT012,0.00,VWS V14.01,2013-07-22 04:47:00,
2013-07-22 00:52:00,74.7,74.7,29.97,West,270,2.9,2.9,100,0.00,,BKN004,0.00,VWS V14.01,2013-07-22 04:52:00,
2013-07-22 00:58:00,74.7,74.7,29.97,West,270,1.6,1.6,100,0.00,,BKN004,0.00,VWS V14.01,2013-07-22 04:58:00,
2013-07-22 01:02:00,74.7,74.7,29.97,West,270,3.1,3.1,100,0.00,,BKN004,0.00,VWS V14.01,2013-07-22 05:02:00,
2013-07-22 01:08:00,74.5,74.5,29.97,WSW,248,4.0,4.0,100,0.00,,BKN004,0.00,VWS V14.01,2013-07-22 05:08:00,
2013-07-22 01:13:00,74.5,74.5,29.97,West,270,3.6,3.6,100,0.00,,BKN004,0.00,VWS V14.01,2013-07-22 05:13:00,
2013-07-22 01:18:00,74.5,74.5,29.97,West,270,2.9,2.9,100,0.00,,BKN004,0.00,VWS V14.01,2013-07-22 05:18:00,
2013-07-22 01:23:00,74.5,74.5,29.97,West,270,1.6,1.6,100,0.00,,BKN004,0.00,VWS V14.01,2013-07-22 05:23:00,
2013-07-22 01:28:00,74.3,74.3,29.97,WSW,248,2.7,2.7,100,0.00,,BKN004,0.00,VWS V14.01,2013-07-22 05:28:00,
2013-07-22 01:33:00,74.3,74.3,29.97,WSW,248,0.0,0.0,100,0.00,,BKN004,0.00,VWS V14.01,2013-07-22 05:33:00,
2013-07-22 01:38:00,74.3,74.3,29.97,North,0,0.0,0.0,100,0.00,,OVC006,0.00,VWS V14.01,2013-07-22 05:38:00,
2013-07-22 01:43:00,74.3,74.3,29.97,West,270,1.3,1.3,100,0.00,,OVC006,0.00,VWS V14.01,2013-07-22 05:43:00,
2013-07-22 01:48:00,74.3,74.3,29.97,NNW,338,1.3,1.3,100,0.00,,OVC006,0.00,VWS V14.01,2013-07-22 05:48:00,
2013-07-22 01:53:00,74.3,74.3,29.97,NNW,338,2.5,2.5,100,0.00,,OVC006,0.00,VWS V14.01,2013-07-22 05:53:00,
2013-07-22 01:59:00,74.3,74.3,29.97,West,270,1.6,1.6,100,0.00,,OVC006,0.00,VWS V14.01,2013-07-22 05:59:00,
2013-07-22 02:04:00,74.3,74.3,29.97,West,270,2.0,2.0,100,0.00,,OVC006,0.00,VWS V14.01,2013-07-22 06:04:00,
2013-07-22 02:09:00,74.3,74.3,29.97,WSW,248,2.7,2.7,100,0.00,,OVC006,0.00,VWS V14.01,2013-07-22 06:09:00,
2013-07-22 02:14:00,74.3,74.3,29.94,WSW,248,2.7,2.7,100,0.00,,OVC006,0.00,VWS V14.01,2013-07-22 06:14:00,
2013-07-22 02:19:00,74.3,74.3,29.94,WSW,248,1.3,1.3,100,0.00,,OVC006,0.00,VWS V14.01,2013-07-22 06:19:00,
2013-07-22 02:24:00,74.3,74.3,29.94,WSW,248,2.0,2.0,100,0.00,,OVC006,0.00,VWS V14.01,2013-07-22 06:24:00,
2013-07-22 02:29:00,74.3,74.3,29.94,West,270,0.0,0.0,100,0.00,,OVC006,0.00,VWS V14.01,2013-07-22 06:29:00,
2013-07-22 02:34:00,74.3,74.3,29.94,WNW,292,0.0,0.0,100,0.00,,OVC006,0.00,VWS V14.01,2013-07-22 06:34:00,
2013-07-22 02:39:00,74.3,74.3,29.94,West,270,0.0,0.0,100,0.00,,BKN006,0.00,VWS V14.01,2013-07-22 06:39:00,
2013-07-22 02:44:00,74.3,74.3,29.94,WSW,248,2.5,2.5,100,0.00,,BKN006,0.00,VWS V14.01,2013-07-22 06:44:00,
2013-07-22 02:49:00,74.3,74.3,29.94,West,270,4.0,4.0,100,0.00,,BKN006,0.00,VWS V14.01,2013-07-22 06:49:00,
2013-07-22 02:54:00,74.5,74.5,29.94,West,270,2.5,2.5,100,0.00,,BKN006,0.00,VWS V14.01,2013-07-22 06:54:00,
2013-07-22 03:00:00,74.5,74.5,29.94,WSW,248,1.1,1.1,100,0.00,,BKN006,0.00,VWS V14.01,2013-07-22 07:00:00,
2013-07-22 03:05:00,74.5,74.5,29.94,West,270,0.0,0.0,100,0.00,,BKN006,0.00,VWS V14.01,2013-07-22 07:05:00,
2013-07-22 03:10:00,74.5,74.5,29.94,West,270,0.9,0.9,100,0.00,,BKN006,0.00,VWS V14.01,2013-07-22 07:10:00,
2013-07-22 03:15:00,74.5,74.5,29.91,NNW,338,0.0,0.0,100,0.00,,BKN006,0.00,VWS V14.01,2013-07-22 07:15:00,
2013-07-22 03:20:00,74.5,74.5,29.91,SW,225,1.1,1.1,100,0.00,,BKN006,0.00,VWS V14.01,2013-07-22 07:20:00,
2013-07-22 03:25:00,74.3,74.3,29.91,West,270,0.0,0.0,100,0.00,,BKN006,0.00,VWS V14.01,2013-07-22 07:25:00,
2013-07-22 03:30:00,74.3,74.3,29.91,West,270,0.0,0.0,100,0.00,,BKN006,0.00,VWS V14.01,2013-07-22 07:30:00,
2013-07-22 03:35:00,74.3,74.3,29.91,SW,225,0.0,0.0,100,0.00,,BKN006,0.00,VWS V14.01,2013-07-22 07:35:00,
2013-07-22 03:40:00,74.2,74.2,29.91,SSW,202,1.3,1.3,100,0.00,,SCT006,0.00,VWS V14.01,2013-07-22 07:40:00,
2013-07-22 03:45:00,74.2,74.2,29.91,SSW,202,0.0,0.0,100,0.00,,SCT006,0.00,VWS V14.01,2013-07-22 07:45:00,
2013-07-22 03:50:00,74.0,74.0,29.91,SW,225,0.0,0.0,100,0.00,,SCT006,0.00,VWS V14.01,2013-07-22 07:50:00,
2013-07-22 03:55:00,74.0,74.0,29.91,SW,225,0.0,0.0,100,0.00,,SCT006,0.00,VWS V14.01,2013-07-22 07:55:00,
2013-07-22 04:00:00,73.8,73.8,29.91,SSW,202,1.6,1.6,100,0.00,,SCT006,0.00,VWS V14.01,2013-07-22 08:00:00,
2013-07-22 04:05:00,73.8,73.8,29.91,SW,225,2.0,2.0,100,0.00,,SCT006,0.00,VWS V14.01,2013-07-22 08:05:00,
2013-07-22 04:10:00,73.8,73.8,29.91,SW,225,3.4,3.4,100,0.00,,SCT006,0.00,VWS V14.01,2013-07-22 08:10:00,
2013-07-22 04:15:00,74.0,74.0,29.91,West,270,2.5,2.5,100,0.00,,SCT006,0.00,VWS V14.01,2013-07-22 08:15:00,
2013-07-22 04:20:00,73.8,73.8,29.91,West,270,1.6,1.6,100,0.00,,SCT006,0.00,VWS V14.01,2013-07-22 08:20:00,
2013-07-22 04:25:00,74.0,74.0,29.91,West,270,3.1,3.1,100,0.00,,SCT006,0.00,VWS V14.01,2013-07-22 08:25:00,
2013-07-22 04:31:00,74.0,74.0,29.91,West,270,4.0,4.0,100,0.00,,SCT006,0.00,VWS V14.01,2013-07-22 08:31:00,
2013-07-22 04:36:00,74.0,74.0,29.91,SW,225,2.0,2.0,100,0.00,,,0.00,VWS V14.01,2013-07-22 08:36:00,
2013-07-22 04:41:00,74.0,74.0,29.91,SSW,202,1.3,1.3,100,0.00,,,0.00,VWS V14.01,2013-07-22 08:41:00,
2013-07-22 04:46:00,74.0,74.0,29.91,West,270,1.3,1.3,100,0.00,,,0.00,VWS V14.01,2013-07-22 08:46:00,
2013-07-22 04:51:00,74.2,74.2,29.91,West,270,2.5,2.5,100,0.00,,,0.00,VWS V14.01,2013-07-22 08:51:00,
2013-07-22 04:56:00,74.2,74.2,29.91,West,270,2.5,2.5,100,0.00,,,0.00,VWS V14.01,2013-07-22 08:56:00,
2013-07-22 05:01:00,74.2,74.2,29.91,West,270,0.0,0.0,100,0.00,,,0.00,VWS V14.01,2013-07-22 09:01:00,
2013-07-22 05:06:00,74.0,74.0,29.91,WSW,248,0.0,0.0,100,0.00,,,0.00,VWS V14.01,2013-07-22 09:06:00,
2013-07-22 05:11:00,74.0,74.0,29.91,SW,225,0.0,0.0,100,0.00,,,0.00,VWS V14.01,2013-07-22 09:11:00,
2013-07-22 05:16:00,74.0,74.0,29.91,WSW,248,2.0,2.0,100,0.00,,,0.00,VWS V14.01,2013-07-22 09:16:00,
2013-07-22 05:21:00,74.2,74.2,29.91,WSW,248,3.4,3.4,100,0.00,,,0.00,VWS V14.01,2013-07-22 09:21:00,
2013-07-22 05:26:00,74.2,74.2,29.94,West,270,3.1,3.1,100,0.00,,,0.00,VWS V14.01,2013-07-22 09:26:00,
2013-07-22 05:31:00,74.2,74.2,29.94,West,270,0.9,0.9,100,0.00,,,0.00,VWS V14.01,2013-07-22 09:31:00,
2013-07-22 05:36:00,74.2,74.2,29.94,West,270,3.8,3.8,100,0.00,,OVC004,0.00,VWS V14.01,2013-07-22 09:36:00,
2013-07-22 05:41:00,74.2,74.2,29.91,WSW,248,1.3,1.3,100,0.00,,OVC004,0.00,VWS V14.01,2013-07-22 09:41:00,
2013-07-22 05:46:00,74.3,74.3,29.91,West,270,3.1,3.1,100,0.00,,OVC004,0.00,VWS V14.01,2013-07-22 09:46:00,
2013-07-22 05:51:00,74.3,74.3,29.91,WSW,248,3.4,3.4,100,0.00,,OVC004,0.00,VWS V14.01,2013-07-22 09:51:00,
2013-07-22 05:56:00,74.3,74.3,29.94,WNW,292,3.6,3.6,100,0.00,,OVC004,0.00,VWS V14.01,2013-07-22 09:56:00,
2013-07-22 06:02:00,74.3,74.3,29.94,West,270,2.5,2.5,100,0.00,,OVC004,0.00,VWS V14.01,2013-07-22 10:02:00,
2013-07-22 06:07:00,74.3,74.3,29.94,WSW,248,2.9,2.9,100,0.00,,OVC004,0.00,VWS V14.01,2013-07-22 10:07:00,
2013-07-22 06:12:00,74.3,74.3,29.97,WSW,248,3.6,3.6,100,0.00,,OVC004,0.00,VWS V14.01,2013-07-22 10:12:00,
2013-07-22 06:17:00,74.3,74.3,29.97,WSW,248,4.0,4.0,100,0.00,,OVC004,0.00,VWS V14.01,2013-07-22 10:17:00,
2013-07-22 06:22:00,74.2,74.2,29.97,West,270,3.6,3.6,100,0.00,,OVC004,0.00,VWS V14.01,2013-07-22 10:22:00,
2013-07-22 06:27:00,74.2,74.2,29.97,West,270,4.9,4.9,100,0.00,,OVC004,0.00,VWS V14.01,2013-07-22 10:27:00,
2013-07-22 06:32:00,74.2,74.2,29.97,West,270,3.1,3.1,100,0.00,,OVC004,0.00,VWS V14.01,2013-07-22 10:32:00,
2013-07-22 06:37:00,74.2,74.2,29.97,West,270,3.6,3.6,100,0.00,,SCT004,0.00,VWS V14.01,2013-07-22 10:37:00,
2013-07-22 06:42:00,74.2,74.2,29.97,WSW,248,3.8,3.8,100,0.00,,SCT004,0.00,VWS V14.01,2013-07-22 10:42:00,
2013-07-22 06:47:00,74.2,74.2,29.97,West,270,5.6,5.6,100,0.00,,SCT004,0.00,VWS V14.01,2013-07-22 10:47:00,
2013-07-22 06:52:00,74.2,74.2,29.97,West,270,4.0,4.0,100,0.00,,BKN004,0.00,VWS V14.01,2013-07-22 10:52:00,
2013-07-22 06:57:00,74.0,74.0,29.97,WSW,248,1.6,1.6,100,0.00,,BKN004,0.00,VWS V14.01,2013-07-22 10:57:00,
2013-07-22 07:02:00,74.0,74.0,29.97,West,270,3.6,3.6,100,0.00,,BKN004,0.00,VWS V14.01,2013-07-22 11:02:00,
2013-07-22 07:07:00,74.2,74.2,29.97,West,270,2.7,2.7,100,0.00,,BKN004,0.00,VWS V14.01,2013-07-22 11:07:00,
2013-07-22 07:12:00,74.2,74.2,29.97,WSW,248,2.0,2.0,100,0.00,,BKN004,0.00,VWS V14.01,2013-07-22 11:12:00,
2013-07-22 07:17:00,74.2,74.2,29.97,West,270,4.0,4.0,100,0.00,,BKN004,0.00,VWS V14.01,2013-07-22 11:17:00,
2013-07-22 07:22:00,74.3,74.3,29.97,West,270,2.5,2.5,100,0.00,,BKN004,0.00,VWS V14.01,2013-07-22 11:22:00,
2013-07-22 07:27:00,74.3,74.3,29.97,SW,225,4.9,4.9,100,0.00,,BKN004,0.00,VWS V14.01,2013-07-22 11:27:00,
2013-07-22 07:32:00,74.3,74.3,29.97,West,270,3.8,3.8,100,0.00,,BKN004,0.00,VWS V14.01,2013-07-22 11:32:00,
2013-07-22 07:37:00,74.3,74.3,29.97,WSW,248,3.4,3.4,100,0.00,,BKN004,0.00,VWS V14.01,2013-07-22 11:37:00,
2013-07-22 07:43:00,74.3,74.3,29.94,WSW,248,4.0,4.0,100,0.00,,OVC004,0.00,VWS V14.01,2013-07-22 11:43:00,
2013-07-22 07:48:00,74.3,74.3,29.94,WSW,248,4.9,4.9,100,0.00,,OVC004,0.00,VWS V14.01,2013-07-22 11:48:00,
2013-07-22 07:53:00,74.5,74.5,29.94,WSW,248,3.1,3.1,100,0.00,,OVC004,0.00,VWS V14.01,2013-07-22 11:53:00,
2013-07-22 07:58:00,74.7,74.7,29.97,WNW,292,6.5,6.5,100,0.00,,OVC004,0.00,VWS V14.01,2013-07-22 11:58:00,
2013-07-22 08:03:00,74.5,74.5,29.97,West,270,3.4,3.4,100,0.00,,OVC004,0.00,VWS V14.01,2013-07-22 12:03:00,
2013-07-22 08:08:00,74.3,74.3,29.97,WSW,248,3.6,3.6,100,0.00,,OVC004,0.00,VWS V14.01,2013-07-22 12:08:00,
2013-07-22 08:13:00,74.3,74.3,29.94,WSW,248,3.6,3.6,100,0.00,,OVC004,0.00,VWS V14.01,2013-07-22 12:13:00,
2013-07-22 08:18:00,74.3,74.3,29.94,WSW,248,1.6,1.6,100,0.00,,OVC004,0.00,VWS V14.01,2013-07-22 12:18:00,
2013-07-22 08:23:00,74.3,74.3,29.94,WSW,248,4.3,4.3,100,0.00,,OVC004,0.00,VWS V14.01,2013-07-22 12:23:00,
2013-07-22 08:28:00,74.3,74.3,29.97,West,270,2.0,2.0,100,0.00,,OVC004,0.00,VWS V14.01,2013-07-22 12:28:00,
2013-07-22 08:33:00,74.3,74.3,29.97,WNW,292,3.4,3.4,100,0.00,,OVC004,0.00,VWS V14.01,2013-07-22 12:33:00,
2013-07-22 08:38:00,74.3,74.3,29.97,SW,225,3.1,3.1,100,0.00,,OVC004,0.00,VWS V14.01,2013-07-22 12:38:00,
2013-07-22 08:43:00,74.5,74.5,29.97,SSW,202,3.8,3.8,100,0.00,,OVC004,0.00,VWS V14.01,2013-07-22 12:43:00,
2013-07-22 08:48:00,74.7,74.7,29.97,West,270,4.9,4.9,100,0.00,,OVC004,0.00,VWS V14.01,2013-07-22 12:48:00,
2013-07-22 08:53:00,74.9,74.9,29.97,WSW,248,4.3,4.3,100,0.00,,OVC006,0.00,VWS V14.01,2013-07-22 12:53:00,
2013-07-22 08:58:00,74.7,73.8,29.97,West,270,3.6,3.6,97,0.00,,OVC006,0.00,VWS V14.01,2013-07-22 12:58:00,
2013-07-22 09:03:00,74.9,74.0,29.97,West,270,3.8,3.8,97,0.00,,OVC006,0.00,VWS V14.01,2013-07-22 13:03:00,
2013-07-22 09:08:00,75.1,73.8,29.97,SW,225,2.9,2.9,96,0.00,,OVC006,0.00,VWS V14.01,2013-07-22 13:08:00,
2013-07-22 09:13:00,75.1,73.2,29.97,WSW,248,4.9,4.9,94,0.00,,OVC006,0.00,VWS V14.01,2013-07-22 13:13:00,
2013-07-22 09:19:00,75.2,74.3,29.97,West,270,3.1,3.1,97,0.00,,OVC006,0.00,VWS V14.01,2013-07-22 13:19:00,
2013-07-22 09:24:00,75.4,73.6,29.97,West,270,3.4,3.4,94,0.00,,OVC006,0.00,VWS V14.01,2013-07-22 13:24:00,
2013-07-22 09:29:00,75.4,73.3,30.00,SW,225,2.5,2.5,93,0.00,,OVC006,0.00,VWS V14.01,2013-07-22 13:29:00,
2013-07-22 09:34:00,75.4,72.6,30.00,WSW,248,6.0,6.0,91,0.00,,OVC006,0.00,VWS V14.01,2013-07-22 13:34:00,
2013-07-22 09:39:00,75.8,73.6,30.00,West,270,1.1,1.1,93,0.00,,OVC006,0.00,VWS V14.01,2013-07-22 13:39:00,
2013-07-22 09:44:00,76.1,73.7,29.97,SW,225,3.1,3.1,92,0.00,,OVC006,0.00,VWS V14.01,2013-07-22 13:44:00,
2013-07-22 09:49:00,76.3,73.2,29.97,NNE,22,2.7,2.7,90,0.00,,OVC006,0.00,VWS V14.01,2013-07-22 13:49:00,
2013-07-22 09:54:00,76.1,73.3,29.97,WSW,248,4.0,4.0,91,0.00,,OVC006,0.00,VWS V14.01,2013-07-22 13:54:00,
2013-07-22 09:59:00,76.1,73.3,29.97,SW,225,3.8,3.8,91,0.00,,OVC006,0.00,VWS V14.01,2013-07-22 13:59:00,
2013-07-22 10:04:00,76.1,73.0,29.97,WSW,248,4.3,4.3,90,0.00,,OVC006,0.00,VWS V14.01,2013-07-22 14:04:00,
2013-07-22 10:09:00,76.0,73.5,29.97,WSW,248,2.9,2.9,92,0.00,,OVC006,0.00,VWS V14.01,2013-07-22 14:09:00,
2013-07-22 10:14:00,75.8,73.0,29.97,West,270,7.6,7.6,91,0.00,,OVC006,0.00,VWS V14.01,2013-07-22 14:14:00,
2013-07-22 10:19:00,75.8,72.3,29.97,WSW,248,6.3,6.3,89,0.00,,OVC006,0.00,VWS V14.01,2013-07-22 14:19:00,
2013-07-22 10:24:00,76.1,73.0,29.97,WSW,248,2.9,2.9,90,0.00,,OVC006,0.00,VWS V14.01,2013-07-22 14:24:00,
2013-07-22 10:29:00,76.3,72.8,29.97,West,270,4.0,4.0,89,0.00,,OVC006,0.00,VWS V14.01,2013-07-22 14:29:00,
2013-07-22 10:34:00,76.5,73.7,29.97,SW,225,2.0,2.0,91,0.00,,OVC006,0.00,VWS V14.01,2013-07-22 14:34:00,
2013-07-22 10:39:00,76.3,73.2,29.97,WNW,292,2.2,2.2,90,0.00,,OVC010,0.00,VWS V14.01,2013-07-22 14:39:00,
2013-07-22 10:44:00,76.3,73.8,30.00,SW,225,4.7,4.7,92,0.00,,OVC010,0.00,VWS V14.01,2013-07-22 14:44:00,
2013-07-22 10:49:00,76.5,72.3,30.00,WNW,292,5.4,5.4,87,0.00,,OVC010,0.00,VWS V14.01,2013-07-22 14:49:00,
2013-07-22 10:55:00,76.9,73.7,30.00,West,270,7.6,7.6,90,0.00,,OVC010,0.00,VWS V14.01,2013-07-22 14:55:00,
2013-07-22 11:00:00,76.5,73.3,29.97,WNW,292,6.0,6.0,90,0.00,,OVC010,0.00,VWS V14.01,2013-07-22 15:00:00,
2013-07-22 11:05:00,76.5,74.0,29.97,WNW,292,6.3,6.3,92,0.00,,OVC010,0.00,VWS V14.01,2013-07-22 15:05:00,
2013-07-22 11:10:00,76.5,73.7,29.97,WSW,248,6.5,6.5,91,0.00,,OVC010,0.00,VWS V14.01,2013-07-22 15:10:00,
2013-07-22 11:15:00,76.5,73.0,30.00,West,270,4.9,4.9,89,0.00,,OVC010,0.00,VWS V14.01,2013-07-22 15:15:00,
2013-07-22 11:20:00,76.5,73.7,30.00,WSW,248,3.4,3.4,91,0.00,,OVC010,0.00,VWS V14.01,2013-07-22 15:20:00,
2013-07-22 11:25:00,76.3,73.2,30.00,WSW,248,8.1,8.1,90,0.00,,OVC010,0.00,VWS V14.01,2013-07-22 15:25:00,
2013-07-22 11:30:00,76.5,73.0,30.00,West,270,3.8,3.8,89,0.00,,OVC010,0.00,VWS V14.01,2013-07-22 15:30:00,
2013-07-22 11:35:00,77.0,73.6,30.00,WSW,248,5.6,5.6,89,0.00,,OVC010,0.00,VWS V14.01,2013-07-22 15:35:00,
2013-07-22 11:40:00,77.2,72.7,30.00,WNW,292,4.9,4.9,86,0.00,,OVC012,0.00,VWS V14.01,2013-07-22 15:40:00,
2013-07-22 11:45:00,77.4,73.2,30.00,West,270,5.8,5.8,87,0.00,,OVC012,0.00,VWS V14.01,2013-07-22 15:45:00,
2013-07-22 11:50:00,77.6,72.0,30.00,WSW,248,7.4,7.4,83,0.00,,OVC012,0.00,VWS V14.01,2013-07-22 15:50:00,
2013-07-22 11:55:00,77.6,72.0,30.00,West,270,2.9,2.9,83,0.00,,OVC012,0.00,VWS V14.01,2013-07-22 15:55:00,
2013-07-22 12:00:00,77.6,72.7,30.00,SSW,202,4.3,4.3,85,0.00,,OVC012,0.00,VWS V14.01,2013-07-22 16:00:00,
2013-07-22 12:05:00,77.8,72.9,30.00,WSW,248,6.3,6.3,85,0.00,,OVC012,0.00,VWS V14.01,2013-07-22 16:05:00,
2013-07-22 12:10:00,78.1,71.8,30.00,SSW,202,3.6,3.6,81,0.00,,OVC012,0.00,VWS V14.01,2013-07-22 16:10:00,
2013-07-22 12:12:00,78.1,71.8,30.00,SSW,202,3.4,3.4,81,0.00,,OVC012,0.00,VWS V14.01,2013-07-22 16:12:00,
2013-07-22 12:17:00,78.1,72.5,30.00,SW,225,6.0,6.0,83,0.00,,OVC012,0.00,VWS V14.01,2013-07-22 16:17:00,
2013-07-22 12:22:00,78.5,72.9,30.00,WSW,248,3.6,3.6,83,0.00,,OVC012,0.00,VWS V14.01,2013-07-22 16:22:00,
2013-07-22 12:27:00,78.8,71.4,30.00,WSW,248,8.7,8.7,78,0.00,,OVC012,0.00,VWS V14.01,2013-07-22 16:27:00,
2013-07-22 12:32:00,78.7,71.2,30.00,SSW,202,7.6,7.6,78,0.00,,OVC012,0.00,VWS V14.01,2013-07-22 16:32:00,
2013-07-22 12:37:00,78.5,70.7,30.00,West,270,9.0,9.0,77,0.00,,OVC012,0.00,VWS V14.01,2013-07-22 16:37:00,
2013-07-22 12:42:00,78.1,71.8,29.97,West,270,5.8,5.8,81,0.00,,OVC012,0.00,VWS V14.01,2013-07-22 16:42:00,
2013-07-22 12:47:00,78.1,72.2,29.97,West,270,7.6,7.6,82,0.00,,OVC012,0.00,VWS V14.01,2013-07-22 16:47:00,
2013-07-22 12:53:00,78.5,71.4,29.97,WSW,248,4.7,4.7,79,0.00,,OVC012,0.00,VWS V14.01,2013-07-22 16:53:00,
2013-07-22 12:58:00,79.0,72.3,29.97,WSW,248,3.8,3.8,80,0.00,,OVC012,0.00,VWS V14.01,2013-07-22 16:58:00,
2013-07-22 13:03:00,79.0,71.2,29.97,SW,225,6.0,6.0,77,0.00,,OVC012,0.00,VWS V14.01,2013-07-22 17:03:00,
2013-07-22 13:08:00,79.2,71.4,29.97,West,270,2.5,2.5,77,0.00,,OVC012,0.00,VWS V14.01,2013-07-22 17:08:00,
2013-07-22 13:13:00,79.2,71.4,29.97,WSW,248,4.0,4.0,77,0.00,,OVC012,0.00,VWS V14.01,2013-07-22 17:13:00,
2013-07-22 13:18:00,79.4,70.8,29.97,West,270,6.3,6.3,75,0.00,,OVC012,0.00,VWS V14.01,2013-07-22 17:18:00,
2013-07-22 13:23:00,79.4,70.8,29.97,WNW,292,4.7,4.7,75,0.00,,OVC012,0.00,VWS V14.01,2013-07-22 17:23:00,
2013-07-22 13:28:00,79.7,71.5,29.97,SSW,202,6.5,6.5,76,0.00,,OVC012,0.00,VWS V14.01,2013-07-22 17:28:00,
2013-07-22 13:33:00,79.9,71.3,29.97,WSW,248,3.8,3.8,75,0.00,,OVC012,0.00,VWS V14.01,2013-07-22 17:33:00,
2013-07-22 13:38:00,79.9,71.7,29.97,WSW,248,9.2,9.2,76,0.00,,OVC023,0.00,VWS V14.01,2013-07-22 17:38:00,
2013-07-22 13:43:00,80.1,71.5,29.97,SSW,202,2.5,2.5,75,0.00,,OVC023,0.00,VWS V14.01,2013-07-22 17:43:00,
2013-07-22 13:48:00,80.5,71.0,29.97,WSW,248,6.5,6.5,73,0.00,,OVC023,0.00,VWS V14.01,2013-07-22 17:48:00,
2013-07-22 13:53:00,80.3,70.0,29.97,SW,225,6.5,6.5,71,0.00,,OVC023,0.00,VWS V14.01,2013-07-22 17:53:00,
2013-07-22 13:58:00,80.8,70.1,29.97,WSW,248,5.6,5.6,70,0.00,,OVC023,0.00,VWS V14.01,2013-07-22 17:58:00,
2013-07-22 14:03:00,80.8,71.0,29.97,SSW,202,7.2,7.2,72,0.00,,OVC023,0.00,VWS V14.01,2013-07-22 18:03:00,
2013-07-22 14:08:00,81.0,72.3,29.97,WSW,248,2.0,2.0,75,0.00,,OVC023,0.00,VWS V14.01,2013-07-22 18:08:00,
2013-07-22 14:13:00,81.7,72.2,29.94,SSW,202,7.4,7.4,73,0.00,,OVC023,0.00,VWS V14.01,2013-07-22 18:13:00,
2013-07-22 14:19:00,81.7,71.0,29.94,WSW,248,4.0,4.0,70,0.00,,OVC023,0.00,VWS V14.01,2013-07-22 18:19:00,
2013-07-22 14:24:00,81.7,71.0,29.94,West,270,7.2,7.2,70,0.00,,OVC023,0.00,VWS V14.01,2013-07-22 18:24:00,
2013-07-22 14:29:00,81.5,70.4,29.94,WSW,248,4.5,4.5,69,0.00,,OVC023,0.00,VWS V14.01,2013-07-22 18:29:00,
2013-07-22 14:34:00,82.4,72.1,29.94,West,270,5.8,5.8,71,0.00,,OVC023,0.00,VWS V14.01,2013-07-22 18:34:00,
2013-07-22 14:39:00,81.9,71.2,29.94,SW,225,7.8,7.8,70,0.00,,OVC026,0.00,VWS V14.01,2013-07-22 18:39:00,
2013-07-22 14:44:00,81.9,70.7,29.94,SW,225,5.6,5.6,69,0.00,,OVC026,0.00,VWS V14.01,2013-07-22 18:44:00,
2013-07-22 14:49:00,82.8,71.2,29.94,SW,225,6.5,6.5,68,0.00,,OVC026,0.00,VWS V14.01,2013-07-22 18:49:00,
2013-07-22 14:54:00,82.8,70.7,29.94,SW,225,4.0,4.0,67,0.00,,OVC026,0.00,VWS V14.01,2013-07-22 18:54:00,
2013-07-22 15:00:00,83.0,70.9,29.91,WSW,248,6.3,6.3,67,0.00,,OVC026,0.00,VWS V14.01,2013-07-22 19:00:00,
2013-07-22 15:05:00,82.6,71.0,29.91,SSW,202,6.5,6.5,68,0.00,,OVC026,0.00,VWS V14.01,2013-07-22 19:05:00,
2013-07-22 15:10:00,82.8,71.2,29.91,West,270,5.4,5.4,68,0.00,,OVC026,0.00,VWS V14.01,2013-07-22 19:10:00,
2013-07-22 15:15:00,83.5,70.1,29.91,West,270,5.6,5.6,64,0.00,,OVC026,0.00,VWS V14.01,2013-07-22 19:15:00,
2013-07-22 15:20:00,83.5,71.4,29.91,SW,225,8.5,8.5,67,0.00,,OVC026,0.00,VWS V14.01,2013-07-22 19:20:00,
2013-07-22 15:25:00,83.7,68.8,29.91,SW,225,4.9,4.9,61,0.00,,OVC026,0.00,VWS V14.01,2013-07-22 19:25:00,
2013-07-22 15:30:00,84.2,71.2,29.91,WSW,248,4.3,4.3,65,0.00,,OVC026,0.00,VWS V14.01,2013-07-22 19:30:00,
2013-07-22 15:35:00,84.2,71.2,29.91,WSW,248,8.5,8.5,65,0.00,,SCT034,0.00,VWS V14.01,2013-07-22 19:35:00,
2013-07-22 15:41:00,84.6,70.6,29.88,WNW,292,7.6,7.6,63,0.00,,SCT034,0.00,VWS V14.01,2013-07-22 19:41:00,
2013-07-22 15:46:00,83.5,70.5,29.88,SW,225,6.0,6.0,65,0.00,,SCT034,0.00,VWS V14.01,2013-07-22 19:46:00,
2013-07-22 15:51:00,83.9,70.4,29.88,SSW,202,8.7,8.7,64,0.00,,SCT034,0.00,VWS V14.01,2013-07-22 19:51:00,
2013-07-22 15:56:00,84.2,72.1,29.91,WSW,248,10.5,10.5,67,0.00,,SCT034,0.00,VWS V14.01,2013-07-22 19:56:00,
2013-07-22 16:01:00,84.1,69.7,29.91,West,270,7.8,7.8,62,0.00,,SCT034,0.00,VWS V14.01,2013-07-22 20:01:00,
2013-07-22 16:06:00,84.4,72.3,29.91,WSW,248,7.6,7.6,67,0.00,,SCT034,0.00,VWS V14.01,2013-07-22 20:06:00,
2013-07-22 16:11:00,84.4,71.4,29.91,WSW,248,6.5,6.5,65,0.00,,SCT034,0.00,VWS V14.01,2013-07-22 20:11:00,
2013-07-22 16:16:00,84.1,70.6,29.91,West,270,5.6,5.6,64,0.00,,SCT034,0.00,VWS V14.01,2013-07-22 20:16:00,
2013-07-22 16:17:00,84.1,71.0,29.91,SW,225,3.8,3.8,65,0.00,,SCT034,0.00,VWS V14.01,2013-07-22 20:17:00,
2013-07-22 16:18:00,84.1,71.5,29.91,SW,225,3.1,3.1,66,0.00,,SCT034,0.00,VWS V14.01,2013-07-22 20:18:00,
2013-07-22 16:23:00,83.9,70.4,29.91,SW,225,8.5,8.5,64,0.00,,SCT034,0.00,VWS V14.01,2013-07-22 20:23:00,
2013-07-22 16:28:00,84.2,71.7,29.91,SW,225,5.8,5.8,66,0.00,,SCT034,0.00,VWS V14.01,2013-07-22 20:28:00,
2013-07-22 16:33:00,84.2,71.7,29.91,WSW,248,7.8,7.8,66,0.00,,SCT034,0.00,VWS V14.01,2013-07-22 20:33:00,
2013-07-22 16:38:00,84.4,70.9,29.91,SSW,202,4.3,4.3,64,0.00,,SCT027,0.00,VWS V14.01,2013-07-22 20:38:00,
2013-07-22 16:43:00,84.2,70.8,29.91,WSW,248,6.0,6.0,64,0.00,,SCT027,0.00,VWS V14.01,2013-07-22 20:43:00,
2013-07-22 16:48:00,84.2,72.1,29.91,SW,225,4.9,4.9,67,0.00,,SCT027,0.00,VWS V14.01,2013-07-22 20:48:00,
2013-07-22 16:53:00,84.4,70.9,29.91,WNW,292,7.4,7.4,64,0.00,,SCT027,0.00,VWS V14.01,2013-07-22 20:53:00,
2013-07-22 16:58:00,84.2,71.2,29.91,WSW,248,4.5,4.5,65,0.00,,SCT027,0.00,VWS V14.01,2013-07-22 20:58:00,
2013-07-22 17:03:00,84.6,73.7,29.91,WSW,248,4.3,4.3,70,0.00,,SCT027,0.00,VWS V14.01,2013-07-22 21:03:00,
2013-07-22 17:08:00,85.1,73.4,29.91,WSW,248,5.8,5.8,68,0.00,,SCT027,0.00,VWS V14.01,2013-07-22 21:08:00,
2013-07-22 17:13:00,85.3,71.8,29.91,WSW,248,8.1,8.1,64,0.00,,SCT027,0.00,VWS V14.01,2013-07-22 21:13:00,
2013-07-22 17:18:00,85.1,71.1,29.91,WSW,248,5.6,5.6,63,0.00,,SCT027,0.00,VWS V14.01,2013-07-22 21:18:00,
2013-07-22 17:23:00,84.8,71.3,29.91,SW,225,4.0,4.0,64,0.00,,SCT027,0.00,VWS V14.01,2013-07-22 21:23:00,
2013-07-22 17:28:00,84.6,72.4,29.88,WSW,248,6.3,6.3,67,0.00,,SCT027,0.00,VWS V14.01,2013-07-22 21:28:00,
2013-07-22 17:33:00,84.1,71.5,29.88,WSW,248,5.8,5.8,66,0.00,,SCT027,0.00,VWS V14.01,2013-07-22 21:33:00,
2013-07-22 17:39:00,84.2,72.1,29.88,SW,225,7.2,7.2,67,0.00,,SCT032,0.00,VWS V14.01,2013-07-22 21:39:00,
2013-07-22 17:44:00,84.2,70.8,29.88,SW,225,7.8,7.8,64,0.00,,SCT032,0.00,VWS V14.01,2013-07-22 21:44:00,
2013-07-22 17:49:00,84.2,71.2,29.88,WSW,248,7.4,7.4,65,0.00,,SCT032,0.00,VWS V14.01,2013-07-22 21:49:00,
2013-07-22 17:54:00,84.4,71.4,29.88,WSW,248,5.6,5.6,65,0.00,,SCT032,0.00,VWS V14.01,2013-07-22 21:54:00,
2013-07-22 17:59:00,84.2,71.2,29.88,West,270,10.1,10.1,65,0.00,,SCT032,0.00,VWS V14.01,2013-07-22 21:59:00,
2013-07-22 18:04:00,84.2,70.8,29.88,WSW,248,3.6,3.6,64,0.00,,SCT032,0.00,VWS V14.01,2013-07-22 22:04:00,
2013-07-22 18:09:00,84.4,71.4,29.88,WSW,248,5.6,5.6,65,0.00,,SCT032,0.00,VWS V14.01,2013-07-22 22:09:00,
2013-07-22 18:14:00,84.1,70.1,29.88,SW,225,10.5,10.5,63,0.00,,SCT032,0.00,VWS V14.01,2013-07-22 22:14:00,
2013-07-22 18:19:00,83.9,70.9,29.88,SSW,202,4.9,4.9,65,0.00,,SCT032,0.00,VWS V14.01,2013-07-22 22:19:00,
2013-07-22 18:24:00,83.5,71.0,29.88,SSW,202,6.0,6.0,66,0.00,,SCT032,0.00,VWS V14.01,2013-07-22 22:24:00,
2013-07-22 18:29:00,83.9,70.9,29.88,SW,225,8.1,8.1,65,0.00,,SCT032,0.00,VWS V14.01,2013-07-22 22:29:00,
2013-07-22 18:34:00,83.9,71.3,29.88,West,270,6.9,6.9,66,0.00,,SCT032,0.00,VWS V14.01,2013-07-22 22:34:00,
2013-07-22 18:39:00,83.9,70.9,29.88,SW,225,8.7,8.7,65,0.00,,SCT032,0.00,VWS V14.01,2013-07-22 22:39:00,
2013-07-22 18:44:00,83.7,71.1,29.88,WSW,248,6.0,6.0,66,0.00,,SCT032,0.00,VWS V14.01,2013-07-22 22:44:00,
2013-07-22 18:49:00,83.9,71.8,29.88,SW,225,7.2,7.2,67,0.00,,SCT032,0.00,VWS V14.01,2013-07-22 22:49:00,
2013-07-22 18:54:00,83.5,71.0,29.88,West,270,8.1,8.1,66,0.00,,SCT032,0.00,VWS V14.01,2013-07-22 22:54:00,
2013-07-22 18:59:00,83.7,71.6,29.88,SW,225,5.6,5.6,67,0.00,,SCT032,0.00,VWS V14.01,2013-07-22 22:59:00,
2013-07-22 19:04:00,83.5,71.4,29.88,SSW,202,4.3,4.3,67,0.00,,SCT032,0.00,VWS V14.01,2013-07-22 23:04:00,
2013-07-22 19:09:00,83.3,72.1,29.88,WSW,248,7.6,7.6,69,0.00,,SCT032,0.00,VWS V14.01,2013-07-22 23:09:00,
2013-07-22 19:14:00,83.2,71.9,29.88,SSW,202,6.5,6.5,69,0.00,,SCT032,0.00,VWS V14.01,2013-07-22 23:14:00,
2013-07-22 19:19:00,83.0,71.8,29.88,SSW,202,7.6,7.6,69,0.00,,SCT032,0.00,VWS V14.01,2013-07-22 23:19:00,
2013-07-22 19:25:00,82.8,71.6,29.88,SW,225,8.5,8.5,69,0.00,,SCT032,0.00,VWS V14.01,2013-07-22 23:25:00,
2013-07-22 19:30:00,82.4,71.7,29.88,SW,225,5.4,5.4,70,0.00,,SCT032,0.00,VWS V14.01,2013-07-22 23:30:00,
2013-07-22 19:35:00,82.3,71.5,29.88,SSW,202,11.0,11.0,70,0.00,,SCT032,0.00,VWS V14.01,2013-07-22 23:35:00,
2013-07-22 19:40:00,81.9,71.6,29.88,WSW,248,4.3,4.3,71,0.00,,CLR,0.00,VWS V14.01,2013-07-22 23:40:00,
2013-07-22 19:45:00,81.7,71.4,29.88,WSW,248,6.0,6.0,71,0.00,,CLR,0.00,VWS V14.01,2013-07-22 23:45:00,
2013-07-22 19:50:00,81.5,71.2,29.88,SW,225,8.1,8.1,71,0.00,,CLR,0.00,VWS V14.01,2013-07-22 23:50:00,
2013-07-22 19:55:00,81.4,71.5,29.88,SW,225,6.0,6.0,72,0.00,,CLR,0.00,VWS V14.01,2013-07-22 23:55:00,
2013-07-22 20:00:00,81.2,71.3,29.85,SW,225,3.8,3.8,72,0.00,,CLR,0.00,VWS V14.01,2013-07-23 00:00:00,
2013-07-22 20:05:00,81.0,71.5,29.85,SSW,202,5.6,5.6,73,0.00,,CLR,0.00,VWS V14.01,2013-07-23 00:05:00,
2013-07-22 20:10:00,80.8,71.0,29.85,WSW,248,9.6,9.6,72,0.00,,CLR,0.00,VWS V14.01,2013-07-23 00:10:00,
2013-07-22 20:15:00,80.6,71.2,29.88,West,270,4.9,4.9,73,0.00,,CLR,0.00,VWS V14.01,2013-07-23 00:15:00,
2013-07-22 20:20:00,80.5,71.0,29.88,SW,225,2.9,2.9,73,0.00,,CLR,0.00,VWS V14.01,2013-07-23 00:20:00,
2013-07-22 20:25:00,80.3,71.2,29.88,SW,225,2.9,2.9,74,0.00,,CLR,0.00,VWS V14.01,2013-07-23 00:25:00,
2013-07-22 20:30:00,80.1,71.5,29.88,SW,225,4.3,4.3,75,0.00,,CLR,0.00,VWS V14.01,2013-07-23 00:30:00,
2013-07-22 20:35:00,79.9,71.7,29.88,SW,225,6.0,6.0,76,0.00,,CLR,0.00,VWS V14.01,2013-07-23 00:35:00,
2013-07-22 20:40:00,79.7,71.5,29.88,SSW,202,4.5,4.5,76,0.00,,CLR,0.00,VWS V14.01,2013-07-23 00:40:00,
2013-07-22 20:45:00,79.6,71.7,29.85,SW,225,3.8,3.8,77,0.00,,CLR,0.00,VWS V14.01,2013-07-23 00:45:00,
2013-07-22 20:51:00,79.4,71.9,29.85,West,270,3.4,3.4,78,0.00,,CLR,0.00,VWS V14.01,2013-07-23 00:51:00,
2013-07-22 20:56:00,79.2,72.1,29.88,WSW,248,7.6,7.6,79,0.00,,CLR,0.00,VWS V14.01,2013-07-23 00:56:00,
2013-07-22 21:01:00,79.0,72.3,29.88,SSW,202,3.8,3.8,80,0.00,,CLR,0.00,VWS V14.01,2013-07-23 01:01:00,
2013-07-22 21:06:00,78.8,72.5,29.88,WSW,248,5.8,5.8,81,0.00,,CLR,0.00,VWS V14.01,2013-07-23 01:06:00,
2013-07-22 21:11:00,78.8,72.5,29.88,SSW,202,2.9,2.9,81,0.00,,CLR,0.00,VWS V14.01,2013-07-23 01:11:00,
2013-07-22 21:16:00,78.8,72.5,29.88,WSW,248,2.7,2.7,81,0.00,,CLR,0.00,VWS V14.01,2013-07-23 01:16:00,
2013-07-22 21:21:00,78.7,72.3,29.88,SW,225,2.7,2.7,81,0.00,,CLR,0.00,VWS V14.01,2013-07-23 01:21:00,
2013-07-22 21:26:00,78.7,72.3,29.88,SSW,202,4.3,4.3,81,0.00,,CLR,0.00,VWS V14.01,2013-07-23 01:26:00,
2013-07-22 21:31:00,78.7,72.3,29.88,WSW,248,3.4,3.4,81,0.00,,CLR,0.00,VWS V14.01,2013-07-23 01:31:00,
2013-07-22 21:36:00,78.5,72.2,29.88,West,270,3.4,3.4,81,0.00,,CLR,0.00,VWS V14.01,2013-07-23 01:36:00,
2013-07-22 21:41:00,78.5,72.2,29.88,SSW,202,3.4,3.4,81,0.00,,CLR,0.00,VWS V14.01,2013-07-23 01:41:00,
2013-07-22 21:46:00,78.3,72.4,29.88,WSW,248,3.1,3.1,82,0.00,,CLR,0.00,VWS V14.01,2013-07-23 01:46:00,
2013-07-22 21:51:00,78.3,72.4,29.88,SW,225,5.4,5.4,82,0.00,,CLR,0.00,VWS V14.01,2013-07-23 01:51:00,
2013-07-22 21:56:00,78.1,72.2,29.88,SW,225,5.6,5.6,82,0.00,,CLR,0.00,VWS V14.01,2013-07-23 01:56:00,
2013-07-22 22:01:00,78.1,72.2,29.88,SW,225,6.0,6.0,82,0.00,,CLR,0.00,VWS V14.01,2013-07-23 02:01:00,
2013-07-22 22:06:00,78.1,72.2,29.88,WSW,248,3.6,3.6,82,0.00,,CLR,0.00,VWS V14.01,2013-07-23 02:06:00,
2013-07-22 22:11:00,78.1,72.2,29.88,SW,225,4.9,4.9,82,0.00,,CLR,0.00,VWS V14.01,2013-07-23 02:11:00,
2013-07-22 22:16:00,77.9,72.0,29.88,SW,225,6.0,6.0,82,0.00,,CLR,0.00,VWS V14.01,2013-07-23 02:16:00,
2013-07-22 22:21:00,77.9,72.0,29.88,SW,225,5.4,5.4,82,0.00,,CLR,0.00,VWS V14.01,2013-07-23 02:21:00,
2013-07-22 22:26:00,77.8,72.2,29.88,SSW,202,6.0,6.0,83,0.00,,CLR,0.00,VWS V14.01,2013-07-23 02:26:00,
2013-07-22 22:31:00,77.8,72.2,29.88,SSW,202,6.0,6.0,83,0.00,,CLR,0.00,VWS V14.01,2013-07-23 02:31:00,
2013-07-22 22:36:00,77.6,72.0,29.88,WSW,248,3.8,3.8,83,0.00,,CLR,0.00,VWS V14.01,2013-07-23 02:36:00,
2013-07-22 22:41:00,77.6,72.4,29.88,WSW,248,5.4,5.4,84,0.00,,CLR,0.00,VWS V14.01,2013-07-23 02:41:00,
2013-07-22 22:46:00,77.4,72.5,29.88,SW,225,6.5,6.5,85,0.00,,CLR,0.00,VWS V14.01,2013-07-23 02:46:00,
2013-07-22 22:52:00,77.4,72.5,29.88,SSW,202,5.4,5.4,85,0.00,,CLR,0.00,VWS V14.01,2013-07-23 02:52:00,
2013-07-22 22:57:00,77.4,72.5,29.91,SSW,202,4.0,4.0,85,0.00,,CLR,0.00,VWS V14.01,2013-07-23 02:57:00,
2013-07-22 23:02:00,77.2,73.1,29.91,WSW,248,3.6,3.6,87,0.00,,CLR,0.00,VWS V14.01,2013-07-23 03:02:00,
2013-07-22 23:07:00,77.2,73.4,29.91,WSW,248,3.6,3.6,88,0.00,,CLR,0.00,VWS V14.01,2013-07-23 03:07:00,
2013-07-22 23:12:00,77.2,73.4,29.91,WSW,248,4.5,4.5,88,0.00,,CLR,0.00,VWS V14.01,2013-07-23 03:12:00,
2013-07-22 23:17:00,77.0,73.2,29.91,SW,225,4.9,4.9,88,0.00,,CLR,0.00,VWS V14.01,2013-07-23 03:17:00,
2013-07-22 23:22:00,76.9,73.4,29.91,SW,225,4.9,4.9,89,0.00,,CLR,0.00,VWS V14.01,2013-07-23 03:22:00,
2013-07-22 23:27:00,76.9,73.4,29.88,SW,225,4.3,4.3,89,0.00,,CLR,0.00,VWS V14.01,2013-07-23 03:27:00,
2013-07-22 23:32:00,76.7,73.5,29.88,WSW,248,6.5,6.5,90,0.00,,CLR,0.00,VWS V14.01,2013-07-23 03:32:00,
2013-07-22 23:37:00,76.7,73.9,29.88,SW,225,3.8,3.8,91,0.00,,CLR,0.00,VWS V14.01,2013-07-23 03:37:00,
2013-07-22 23:42:00,76.7,73.9,29.88,SSW,202,6.3,6.3,91,0.00,,CLR,0.00,VWS V14.01,2013-07-23 03:42:00,
2013-07-22 23:47:00,76.7,73.9,29.88,SW,225,5.8,5.8,91,0.00,,CLR,0.00,VWS V14.01,2013-07-23 03:47:00,
2013-07-22 23:52:00,76.7,73.9,29.88,WSW,248,5.6,5.6,91,0.00,,CLR,0.00,VWS V14.01,2013-07-23 03:52:00,
2013-07-22 23:57:00,76.9,73.7,29.88,WSW,248,5.6,5.6,90,0.00,,CLR,0.00,VWS V14.01,2013-07-23 03:57:00,